sensor_id;sensor_type;location;lat;lon;timestamp;temperature;humidity
39099;DHT22;24844;52.380;7.018;2023-04-01T00:00:30;9.70;99.90
39099;DHT22;24844;52.380;7.018;2023-04-01T00:02:55;9.70;99.90
39099;DHT22;24844;52.380;7.018;2023-04-01T00:05:21;9.60;99.90
39099;DHT22;24844;52.380;7.018;2023-04-01T00:07:46;9.70;99.90
39099;DHT22;24844;52.380;7.018;2023-04-01T00:10:13;9.60;99.90
39099;DHT22;24844;52.380;7.018;2023-04-01T00:12:39;9.50;99.90
39099;DHT22;24844;52.380;7.018;2023-04-01T00:15:08;9.70;99.90
39099;DHT22;24844;52.380;7.018;2023-04-01T00:17:34;9.70;99.90
39099;DHT22;24844;52.380;7.018;2023-04-01T00:19:59;9.50;99.90
39099;DHT22;24844;52.380;7.018;2023-04-01T00:22:26;9.40;99.90
39099;DHT22;24844;52.380;7.018;2023-04-01T00:24:53;9.40;99.90
39099;DHT22;24844;52.380;7.018;2023-04-01T00:27:19;9.50;99.90
39099;DHT22;24844;52.380;7.018;2023-04-01T00:29:45;9.40;99.90
39099;DHT22;24844;52.380;7.018;2023-04-01T00:32:12;9.70;99.90
39099;DHT22;24844;52.380;7.018;2023-04-01T00:34:38;9.70;99.90
39099;DHT22;24844;52.380;7.018;2023-04-01T00:37:05;9.70;99.90
39099;DHT22;24844;52.380;7.018;2023-04-01T00:39:32;9.50;99.90
39099;DHT22;24844;52.380;7.018;2023-04-01T00:41:59;9.50;99.90
39099;DHT22;24844;52.380;7.018;2023-04-01T00:44:31;9.50;99.90
39099;DHT22;24844;52.380;7.018;2023-04-01T00:46:59;9.40;99.90
39099;DHT22;24844;52.380;7.018;2023-04-01T00:49:31;9.40;99.90
39099;DHT22;24844;52.380;7.018;2023-04-01T00:52:00;9.40;99.90
39099;DHT22;24844;52.380;7.018;2023-04-01T00:54:29;9.30;99.90
39099;DHT22;24844;52.380;7.018;2023-04-01T00:56:59;9.40;99.90
39099;DHT22;24844;52.380;7.018;2023-04-01T00:59:29;9.60;99.90
39099;DHT22;24844;52.380;7.018;2023-04-01T01:01:56;9.60;99.90
39099;DHT22;24844;52.380;7.018;2023-04-01T01:07:03;9.70;99.90
39099;DHT22;24844;52.380;7.018;2023-04-01T01:12:39;9.70;99.90
39099;DHT22;24844;52.380;7.018;2023-04-01T01:15:08;9.40;99.90
39099;DHT22;24844;52.380;7.018;2023-04-01T01:31:55;9.50;99.90
39099;DHT22;24844;52.380;7.018;2023-04-01T01:34:41;9.40;99.90
39099;DHT22;24844;52.380;7.018;2023-04-01T01:37:16;9.50;99.90
39099;DHT22;24844;52.380;7.018;2023-04-01T01:39:45;9.30;99.90
39099;DHT22;24844;52.380;7.018;2023-04-01T01:42:15;9.40;99.90
39099;DHT22;24844;52.380;7.018;2023-04-01T01:44:44;9.70;99.90
39099;DHT22;24844;52.380;7.018;2023-04-01T01:47:11;9.40;99.90
39099;DHT22;24844;52.380;7.018;2023-04-01T01:49:38;9.50;99.90
39099;DHT22;24844;52.380;7.018;2023-04-01T01:52:04;9.60;99.90
39099;DHT22;24844;52.380;7.018;2023-04-01T01:54:30;9.70;99.90
39099;DHT22;24844;52.380;7.018;2023-04-01T01:57:05;9.40;99.90
39099;DHT22;24844;52.380;7.018;2023-04-01T01:59:33;9.70;99.90
39099;DHT22;24844;52.380;7.018;2023-04-01T02:02:00;9.40;99.90
39099;DHT22;24844;52.380;7.018;2023-04-01T02:04:37;9.50;99.90
39099;DHT22;24844;52.380;7.018;2023-04-01T02:07:08;9.40;99.90
39099;DHT22;24844;52.380;7.018;2023-04-01T02:09:36;9.60;99.90
39099;DHT22;24844;52.380;7.018;2023-04-01T02:12:10;9.70;99.90
39099;DHT22;24844;52.380;7.018;2023-04-01T02:14:45;9.60;99.90
39099;DHT22;24844;52.380;7.018;2023-04-01T02:17:17;9.70;99.90
39099;DHT22;24844;52.380;7.018;2023-04-01T02:20:04;9.60;99.90
39099;DHT22;24844;52.380;7.018;2023-04-01T02:22:34;9.80;99.90
39099;DHT22;24844;52.380;7.018;2023-04-01T02:25:12;9.70;99.90
39099;DHT22;24844;52.380;7.018;2023-04-01T02:27:39;9.50;99.90
39099;DHT22;24844;52.380;7.018;2023-04-01T02:30:06;9.40;99.90
39099;DHT22;24844;52.380;7.018;2023-04-01T02:32:33;9.40;99.90
39099;DHT22;24844;52.380;7.018;2023-04-01T02:35:00;9.50;99.90
39099;DHT22;24844;52.380;7.018;2023-04-01T02:37:28;9.40;99.90
39099;DHT22;24844;52.380;7.018;2023-04-01T02:39:54;9.60;99.90
39099;DHT22;24844;52.380;7.018;2023-04-01T02:42:19;9.60;99.90
39099;DHT22;24844;52.380;7.018;2023-04-01T02:44:45;9.80;99.90
39099;DHT22;24844;52.380;7.018;2023-04-01T02:47:11;9.60;99.90
39099;DHT22;24844;52.380;7.018;2023-04-01T02:49:36;9.60;99.90
39099;DHT22;24844;52.380;7.018;2023-04-01T02:52:02;9.70;99.90
39099;DHT22;24844;52.380;7.018;2023-04-01T02:54:27;9.70;99.90
39099;DHT22;24844;52.380;7.018;2023-04-01T02:56:53;9.60;99.90
39099;DHT22;24844;52.380;7.018;2023-04-01T02:59:18;9.70;99.90
39099;DHT22;24844;52.380;7.018;2023-04-01T03:01:44;9.80;99.90
39099;DHT22;24844;52.380;7.018;2023-04-01T03:04:09;9.90;99.90
39099;DHT22;24844;52.380;7.018;2023-04-01T03:06:35;9.90;99.90
39099;DHT22;24844;52.380;7.018;2023-04-01T03:09:01;9.60;99.90
39099;DHT22;24844;52.380;7.018;2023-04-01T03:11:27;9.60;99.90
39099;DHT22;24844;52.380;7.018;2023-04-01T03:13:52;10.00;99.90
39099;DHT22;24844;52.380;7.018;2023-04-01T03:16:18;9.70;99.90
39099;DHT22;24844;52.380;7.018;2023-04-01T03:18:43;10.00;99.90
39099;DHT22;24844;52.380;7.018;2023-04-01T03:21:17;9.70;99.90
39099;DHT22;24844;52.380;7.018;2023-04-01T03:23:43;9.60;99.90
39099;DHT22;24844;52.380;7.018;2023-04-01T03:26:09;9.70;99.90
39099;DHT22;24844;52.380;7.018;2023-04-01T03:28:35;9.70;99.90
39099;DHT22;24844;52.380;7.018;2023-04-01T03:31:00;9.70;99.90
39099;DHT22;24844;52.380;7.018;2023-04-01T03:33:26;9.60;99.90
39099;DHT22;24844;52.380;7.018;2023-04-01T03:35:52;9.90;99.90
39099;DHT22;24844;52.380;7.018;2023-04-01T03:38:18;9.80;99.90
39099;DHT22;24844;52.380;7.018;2023-04-01T03:40:44;9.90;99.90
39099;DHT22;24844;52.380;7.018;2023-04-01T03:43:10;9.70;99.90
39099;DHT22;24844;52.380;7.018;2023-04-01T03:45:36;9.90;99.90
39099;DHT22;24844;52.380;7.018;2023-04-01T03:48:08;9.90;99.90
39099;DHT22;24844;52.380;7.018;2023-04-01T03:50:34;9.70;99.90
39099;DHT22;24844;52.380;7.018;2023-04-01T03:53:00;9.70;99.90
39099;DHT22;24844;52.380;7.018;2023-04-01T03:55:25;9.90;99.90
39099;DHT22;24844;52.380;7.018;2023-04-01T03:57:51;9.90;99.90
39099;DHT22;24844;52.380;7.018;2023-04-01T04:00:17;9.80;99.90
39099;DHT22;24844;52.380;7.018;2023-04-01T04:02:42;9.80;99.90
39099;DHT22;24844;52.380;7.018;2023-04-01T04:05:08;9.80;99.90
39099;DHT22;24844;52.380;7.018;2023-04-01T04:07:37;9.70;99.90
39099;DHT22;24844;52.380;7.018;2023-04-01T04:10:03;9.90;99.90
39099;DHT22;24844;52.380;7.018;2023-04-01T04:12:29;10.00;99.90
39099;DHT22;24844;52.380;7.018;2023-04-01T04:14:54;9.80;99.90
39099;DHT22;24844;52.380;7.018;2023-04-01T04:17:20;10.00;99.90
39099;DHT22;24844;52.380;7.018;2023-04-01T04:19:46;9.80;99.90
39099;DHT22;24844;52.380;7.018;2023-04-01T04:22:12;10.00;99.90
39099;DHT22;24844;52.380;7.018;2023-04-01T04:24:37;10.00;99.90
39099;DHT22;24844;52.380;7.018;2023-04-01T04:27:04;9.70;99.90
39099;DHT22;24844;52.380;7.018;2023-04-01T04:29:29;9.90;99.90
39099;DHT22;24844;52.380;7.018;2023-04-01T04:31:55;9.70;99.90
39099;DHT22;24844;52.380;7.018;2023-04-01T04:34:21;10.00;99.90
39099;DHT22;24844;52.380;7.018;2023-04-01T04:36:48;9.80;99.90
39099;DHT22;24844;52.380;7.018;2023-04-01T04:39:15;10.00;99.90
39099;DHT22;24844;52.380;7.018;2023-04-01T04:41:41;10.00;99.90
39099;DHT22;24844;52.380;7.018;2023-04-01T04:44:07;10.00;99.90
39099;DHT22;24844;52.380;7.018;2023-04-01T04:46:32;9.90;99.90
39099;DHT22;24844;52.380;7.018;2023-04-01T04:48:58;10.30;99.90
39099;DHT22;24844;52.380;7.018;2023-04-01T04:51:24;10.40;99.90
39099;DHT22;24844;52.380;7.018;2023-04-01T04:53:49;10.30;99.90
39099;DHT22;24844;52.380;7.018;2023-04-01T04:56:19;10.00;99.90
39099;DHT22;24844;52.380;7.018;2023-04-01T04:58:46;10.30;99.90
39099;DHT22;24844;52.380;7.018;2023-04-01T05:01:13;10.20;99.90
39099;DHT22;24844;52.380;7.018;2023-04-01T05:03:40;9.90;99.90
39099;DHT22;24844;52.380;7.018;2023-04-01T05:06:06;10.00;99.90
39099;DHT22;24844;52.380;7.018;2023-04-01T05:08:32;10.20;99.90
39099;DHT22;24844;52.380;7.018;2023-04-01T05:10:58;10.10;99.90
39099;DHT22;24844;52.380;7.018;2023-04-01T05:13:24;10.40;99.90
39099;DHT22;24844;52.380;7.018;2023-04-01T05:15:50;10.50;99.90
39099;DHT22;24844;52.380;7.018;2023-04-01T05:18:16;10.00;99.90
39099;DHT22;24844;52.380;7.018;2023-04-01T05:20:52;9.90;99.90
39099;DHT22;24844;52.380;7.018;2023-04-01T05:23:19;10.10;99.90
39099;DHT22;24844;52.380;7.018;2023-04-01T05:25:49;10.20;99.90
39099;DHT22;24844;52.380;7.018;2023-04-01T05:28:16;10.40;99.90
39099;DHT22;24844;52.380;7.018;2023-04-01T05:30:43;10.60;99.90
39099;DHT22;24844;52.380;7.018;2023-04-01T05:33:10;10.70;99.90
39099;DHT22;24844;52.380;7.018;2023-04-01T05:35:36;10.70;99.90
39099;DHT22;24844;52.380;7.018;2023-04-01T05:38:03;10.70;99.90
39099;DHT22;24844;52.380;7.018;2023-04-01T05:40:29;10.70;99.90
39099;DHT22;24844;52.380;7.018;2023-04-01T05:42:55;10.70;99.90
39099;DHT22;24844;52.380;7.018;2023-04-01T05:45:20;10.50;99.90
39099;DHT22;24844;52.380;7.018;2023-04-01T05:47:46;10.60;99.90
39099;DHT22;24844;52.380;7.018;2023-04-01T05:50:12;10.40;99.90
39099;DHT22;24844;52.380;7.018;2023-04-01T05:52:38;10.40;99.90
39099;DHT22;24844;52.380;7.018;2023-04-01T05:55:04;10.30;99.90
39099;DHT22;24844;52.380;7.018;2023-04-01T05:57:30;10.50;99.90
39099;DHT22;24844;52.380;7.018;2023-04-01T05:59:55;10.20;99.90
39099;DHT22;24844;52.380;7.018;2023-04-01T06:02:21;10.30;99.90
39099;DHT22;24844;52.380;7.018;2023-04-01T06:04:47;10.10;99.90
39099;DHT22;24844;52.380;7.018;2023-04-01T06:07:17;10.40;99.90
39099;DHT22;24844;52.380;7.018;2023-04-01T06:09:44;10.40;99.90
39099;DHT22;24844;52.380;7.018;2023-04-01T06:12:16;10.40;99.90
39099;DHT22;24844;52.380;7.018;2023-04-01T06:20:17;10.80;99.90
39099;DHT22;24844;52.380;7.018;2023-04-01T06:23:01;10.70;99.90
39099;DHT22;24844;52.380;7.018;2023-04-01T06:25:45;10.60;99.90
39099;DHT22;24844;52.380;7.018;2023-04-01T06:40:02;10.70;99.90
39099;DHT22;24844;52.380;7.018;2023-04-01T06:48:05;10.50;99.90
39099;DHT22;24844;52.380;7.018;2023-04-01T06:50:48;10.60;99.90
39099;DHT22;24844;52.380;7.018;2023-04-01T06:53:39;10.60;99.90
39099;DHT22;24844;52.380;7.018;2023-04-01T06:56:14;10.70;99.90
39099;DHT22;24844;52.380;7.018;2023-04-01T06:58:46;10.50;99.90
39099;DHT22;24844;52.380;7.018;2023-04-01T07:04:09;10.70;99.90
39099;DHT22;24844;52.380;7.018;2023-04-01T07:06:43;10.30;99.90
39099;DHT22;24844;52.380;7.018;2023-04-01T07:09:14;10.20;99.90
39099;DHT22;24844;52.380;7.018;2023-04-01T07:11:41;10.50;99.90
39099;DHT22;24844;52.380;7.018;2023-04-01T07:16:39;10.60;99.90
39099;DHT22;24844;52.380;7.018;2023-04-01T07:19:18;10.50;99.90
39099;DHT22;24844;52.380;7.018;2023-04-01T07:21:49;10.80;99.90
39099;DHT22;24844;52.380;7.018;2023-04-01T07:24:37;10.70;99.90
39099;DHT22;24844;52.380;7.018;2023-04-01T07:27:08;10.70;99.90
39099;DHT22;24844;52.380;7.018;2023-04-01T07:29:35;10.50;99.90
39099;DHT22;24844;52.380;7.018;2023-04-01T07:32:12;10.70;99.90
39099;DHT22;24844;52.380;7.018;2023-04-01T07:34:53;10.70;99.90
39099;DHT22;24844;52.380;7.018;2023-04-01T07:42:57;10.50;99.90
39099;DHT22;24844;52.380;7.018;2023-04-01T07:51:01;10.10;99.90
39099;DHT22;24844;52.380;7.018;2023-04-01T07:53:56;10.30;99.90
39099;DHT22;24844;52.380;7.018;2023-04-01T07:56:31;10.10;99.90
39099;DHT22;24844;52.380;7.018;2023-04-01T08:07:28;10.60;99.90
39099;DHT22;24844;52.380;7.018;2023-04-01T08:10:02;10.90;99.90
39099;DHT22;24844;52.380;7.018;2023-04-01T08:15:23;11.30;99.90
39099;DHT22;24844;52.380;7.018;2023-04-01T08:20:57;11.30;99.90
39099;DHT22;24844;52.380;7.018;2023-04-01T08:23:33;11.10;99.90
39099;DHT22;24844;52.380;7.018;2023-04-01T08:26:30;11.40;99.90
39099;DHT22;24844;52.380;7.018;2023-04-01T08:29:11;11.30;99.90
39099;DHT22;24844;52.380;7.018;2023-04-01T08:31:48;10.90;99.90
39099;DHT22;24844;52.380;7.018;2023-04-01T08:34:23;11.80;99.90
39099;DHT22;24844;52.380;7.018;2023-04-01T08:37:02;11.60;99.90
39099;DHT22;24844;52.380;7.018;2023-04-01T08:39:34;12.00;99.90
39099;DHT22;24844;52.380;7.018;2023-04-01T08:44:55;11.90;99.90
39099;DHT22;24844;52.380;7.018;2023-04-01T08:56:03;11.20;99.90
39099;DHT22;24844;52.380;7.018;2023-04-01T09:00:57;11.60;99.90
39099;DHT22;24844;52.380;7.018;2023-04-01T09:03:52;11.80;99.90
39099;DHT22;24844;52.380;7.018;2023-04-01T09:06:43;11.80;99.90
39099;DHT22;24844;52.380;7.018;2023-04-01T09:12:31;12.10;99.90
39099;DHT22;24844;52.380;7.018;2023-04-01T09:15:20;12.40;99.90
39099;DHT22;24844;52.380;7.018;2023-04-01T09:21:09;12.30;99.90
39099;DHT22;24844;52.380;7.018;2023-04-01T09:23:47;12.90;99.90
39099;DHT22;24844;52.380;7.018;2023-04-01T09:31:24;12.40;99.90
39099;DHT22;24844;52.380;7.018;2023-04-01T09:34:24;12.40;99.90
39099;DHT22;24844;52.380;7.018;2023-04-01T09:42:30;13.50;99.90
39099;DHT22;24844;52.380;7.018;2023-04-01T09:45:00;13.80;99.90
39099;DHT22;24844;52.380;7.018;2023-04-01T09:59:01;13.70;99.90
39099;DHT22;24844;52.380;7.018;2023-04-01T10:04:45;13.50;99.90
39099;DHT22;24844;52.380;7.018;2023-04-01T10:15:57;13.80;99.90
39099;DHT22;24844;52.380;7.018;2023-04-01T10:27:10;12.90;99.90
39099;DHT22;24844;52.380;7.018;2023-04-01T10:30:06;12.70;99.90
39099;DHT22;24844;52.380;7.018;2023-04-01T10:33:19;12.50;99.90
39099;DHT22;24844;52.380;7.018;2023-04-01T10:52:22;12.40;99.90
39099;DHT22;24844;52.380;7.018;2023-04-01T11:09:10;12.40;99.90
39099;DHT22;24844;52.380;7.018;2023-04-01T11:25:49;12.50;99.90
39099;DHT22;24844;52.380;7.018;2023-04-01T11:33:38;12.80;99.90
39099;DHT22;24844;52.380;7.018;2023-04-01T11:39:17;13.00;99.90
39099;DHT22;24844;52.380;7.018;2023-04-01T11:53:30;13.30;99.90
39099;DHT22;24844;52.380;7.018;2023-04-01T12:01:34;13.20;99.90
39099;DHT22;24844;52.380;7.018;2023-04-01T12:15:47;13.90;99.90
39099;DHT22;24844;52.380;7.018;2023-04-01T12:20:56;13.60;99.90
39099;DHT22;24844;52.380;7.018;2023-04-01T12:26:09;13.50;99.90
39099;DHT22;24844;52.380;7.018;2023-04-01T12:36:53;13.30;99.90
39099;DHT22;24844;52.380;7.018;2023-04-01T12:39:48;13.20;99.90
39099;DHT22;24844;52.380;7.018;2023-04-01T12:45:17;12.80;99.90
39099;DHT22;24844;52.380;7.018;2023-04-01T12:55:59;12.60;99.90
39099;DHT22;24844;52.380;7.018;2023-04-01T13:06:19;12.60;99.90
39099;DHT22;24844;52.380;7.018;2023-04-01T13:15:19;12.50;99.90
39099;DHT22;24844;52.380;7.018;2023-04-01T13:17:51;12.50;99.90
39099;DHT22;24844;52.380;7.018;2023-04-01T13:23:03;12.50;99.90
39099;DHT22;24844;52.380;7.018;2023-04-01T13:31:59;12.30;99.90
39099;DHT22;24844;52.380;7.018;2023-04-01T13:34:39;12.20;99.90
39099;DHT22;24844;52.380;7.018;2023-04-01T13:37:37;12.30;99.90
39099;DHT22;24844;52.380;7.018;2023-04-01T13:40:25;12.30;99.90
39099;DHT22;24844;52.380;7.018;2023-04-01T13:48:32;12.10;99.90
39099;DHT22;24844;52.380;7.018;2023-04-01T13:51:18;12.10;99.90
39099;DHT22;24844;52.380;7.018;2023-04-01T13:53:56;12.10;99.90
39099;DHT22;24844;52.380;7.018;2023-04-01T13:56:34;12.10;99.90
39099;DHT22;24844;52.380;7.018;2023-04-01T13:59:44;12.40;99.90
39099;DHT22;24844;52.380;7.018;2023-04-01T14:02:51;12.00;99.90
39099;DHT22;24844;52.380;7.018;2023-04-01T14:05:32;12.20;99.90
39099;DHT22;24844;52.380;7.018;2023-04-01T14:14:14;11.90;99.90
39099;DHT22;24844;52.380;7.018;2023-04-01T14:17:31;11.90;99.90
39099;DHT22;24844;52.380;7.018;2023-04-01T14:22:41;11.70;99.90
39099;DHT22;24844;52.380;7.018;2023-04-01T14:25:21;12.10;99.90
39099;DHT22;24844;52.380;7.018;2023-04-01T14:39:51;12.10;99.90
39099;DHT22;24844;52.380;7.018;2023-04-01T14:47:53;12.60;99.90
39099;DHT22;24844;52.380;7.018;2023-04-01T14:50:23;12.00;99.90
39099;DHT22;24844;52.380;7.018;2023-04-01T14:52:59;12.00;99.90
39099;DHT22;24844;52.380;7.018;2023-04-01T14:58:18;11.60;99.90
39099;DHT22;24844;52.380;7.018;2023-04-01T15:01:25;11.40;99.90
39099;DHT22;24844;52.380;7.018;2023-04-01T15:09:59;11.40;99.90
39099;DHT22;24844;52.380;7.018;2023-04-01T15:15:23;11.20;99.90
39099;DHT22;24844;52.380;7.018;2023-04-01T15:20:45;11.20;99.90
39099;DHT22;24844;52.380;7.018;2023-04-01T15:26:35;11.40;99.90
39099;DHT22;24844;52.380;7.018;2023-04-01T15:34:48;11.10;99.90
39099;DHT22;24844;52.380;7.018;2023-04-01T15:37:38;10.70;99.90
39099;DHT22;24844;52.380;7.018;2023-04-01T15:40:30;11.00;99.90
39099;DHT22;24844;52.380;7.018;2023-04-01T15:43:07;10.80;99.90
39099;DHT22;24844;52.380;7.018;2023-04-01T15:51:11;10.60;99.90
39099;DHT22;24844;52.380;7.018;2023-04-01T15:56:50;10.70;99.90
39099;DHT22;24844;52.380;7.018;2023-04-01T16:02:35;10.60;99.90
39099;DHT22;24844;52.380;7.018;2023-04-01T16:05:25;10.50;99.90
39099;DHT22;24844;52.380;7.018;2023-04-01T16:07:58;10.40;99.90
39099;DHT22;24844;52.380;7.018;2023-04-01T16:13:19;10.50;99.90
39099;DHT22;24844;52.380;7.018;2023-04-01T16:21:37;10.60;99.90
39099;DHT22;24844;52.380;7.018;2023-04-01T16:27:42;10.70;99.90
39099;DHT22;24844;52.380;7.018;2023-04-01T16:32:54;10.30;99.90
39099;DHT22;24844;52.380;7.018;2023-04-01T16:35:40;10.30;99.90
39099;DHT22;24844;52.380;7.018;2023-04-01T16:38:15;10.40;99.90
39099;DHT22;24844;52.380;7.018;2023-04-01T16:43:28;10.30;99.90
39099;DHT22;24844;52.380;7.018;2023-04-01T16:51:53;10.10;99.90
39099;DHT22;24844;52.380;7.018;2023-04-01T16:57:26;10.10;99.90
39099;DHT22;24844;52.380;7.018;2023-04-01T16:59:54;9.90;99.90
39099;DHT22;24844;52.380;7.018;2023-04-01T17:02:27;9.80;99.90
39099;DHT22;24844;52.380;7.018;2023-04-01T17:05:01;9.90;99.90
39099;DHT22;24844;52.380;7.018;2023-04-01T17:18:34;9.90;99.90
39099;DHT22;24844;52.380;7.018;2023-04-01T17:21:16;9.90;99.90
39099;DHT22;24844;52.380;7.018;2023-04-01T17:23:45;9.50;99.90
39099;DHT22;24844;52.380;7.018;2023-04-01T17:26:32;9.40;99.90
39099;DHT22;24844;52.380;7.018;2023-04-01T17:29:46;9.50;99.90
39099;DHT22;24844;52.380;7.018;2023-04-01T17:37:57;9.50;99.90
39099;DHT22;24844;52.380;7.018;2023-04-01T17:51:33;9.40;99.90
39099;DHT22;24844;52.380;7.018;2023-04-01T17:56:57;9.50;99.90
39099;DHT22;24844;52.380;7.018;2023-04-01T17:59:34;9.30;99.90
39099;DHT22;24844;52.380;7.018;2023-04-01T18:02:28;9.30;99.90
39099;DHT22;24844;52.380;7.018;2023-04-01T18:05:19;9.10;99.90
39099;DHT22;24844;52.380;7.018;2023-04-01T18:08:12;9.00;99.90
39099;DHT22;24844;52.380;7.018;2023-04-01T18:10:52;9.10;99.90
39099;DHT22;24844;52.380;7.018;2023-04-01T18:13:43;9.40;99.90
39099;DHT22;24844;52.380;7.018;2023-04-01T18:16:24;9.20;99.90
39099;DHT22;24844;52.380;7.018;2023-04-01T18:19:06;9.10;99.90
39099;DHT22;24844;52.380;7.018;2023-04-01T18:21:43;9.30;99.90
39099;DHT22;24844;52.380;7.018;2023-04-01T18:24:40;9.20;99.90
39099;DHT22;24844;52.380;7.018;2023-04-01T18:29:45;8.90;99.90
39099;DHT22;24844;52.380;7.018;2023-04-01T18:32:26;8.90;99.90
39099;DHT22;24844;52.380;7.018;2023-04-01T18:35:00;8.90;99.90
39099;DHT22;24844;52.380;7.018;2023-04-01T18:37:42;8.70;99.90
39099;DHT22;24844;52.380;7.018;2023-04-01T18:40:35;8.70;99.90
39099;DHT22;24844;52.380;7.018;2023-04-01T18:46:27;8.80;99.90
39099;DHT22;24844;52.380;7.018;2023-04-01T18:49:13;8.80;99.90
39099;DHT22;24844;52.380;7.018;2023-04-01T18:51:59;8.70;99.90
39099;DHT22;24844;52.380;7.018;2023-04-01T18:54:33;8.70;99.90
39099;DHT22;24844;52.380;7.018;2023-04-01T18:57:15;8.80;99.90
39099;DHT22;24844;52.380;7.018;2023-04-01T18:59:57;8.70;99.90
39099;DHT22;24844;52.380;7.018;2023-04-01T19:06:00;8.70;99.90
39099;DHT22;24844;52.380;7.018;2023-04-01T19:08:32;8.40;99.90
39099;DHT22;24844;52.380;7.018;2023-04-01T19:24:46;8.60;99.90
39099;DHT22;24844;52.380;7.018;2023-04-01T19:38:12;8.50;99.90
39099;DHT22;24844;52.380;7.018;2023-04-01T19:40:52;8.40;99.90
39099;DHT22;24844;52.380;7.018;2023-04-01T19:54:24;8.30;99.90
39099;DHT22;24844;52.380;7.018;2023-04-01T19:57:15;8.20;99.90
39099;DHT22;24844;52.380;7.018;2023-04-01T19:59:49;8.10;99.90
39099;DHT22;24844;52.380;7.018;2023-04-01T20:04:53;8.20;99.90
39099;DHT22;24844;52.380;7.018;2023-04-01T20:18:00;8.20;99.90
39099;DHT22;24844;52.380;7.018;2023-04-01T20:20:28;8.10;99.90
39099;DHT22;24844;52.380;7.018;2023-04-01T20:25:58;8.00;99.90
39099;DHT22;24844;52.380;7.018;2023-04-01T20:29:02;8.00;99.90
39099;DHT22;24844;52.380;7.018;2023-04-01T20:37:00;7.90;99.90
39099;DHT22;24844;52.380;7.018;2023-04-01T20:45:37;8.00;99.90
39099;DHT22;24844;52.380;7.018;2023-04-01T20:48:46;7.80;99.90
39099;DHT22;24844;52.380;7.018;2023-04-01T20:51:26;7.80;99.90
39099;DHT22;24844;52.380;7.018;2023-04-01T20:56:53;7.50;99.90
39099;DHT22;24844;52.380;7.018;2023-04-01T20:59:41;7.60;99.90
39099;DHT22;24844;52.380;7.018;2023-04-01T21:05:26;7.90;99.90
39099;DHT22;24844;52.380;7.018;2023-04-01T21:13:21;7.90;99.90
39099;DHT22;24844;52.380;7.018;2023-04-01T21:38:57;7.40;99.90
39099;DHT22;24844;52.380;7.018;2023-04-01T21:44:24;7.50;99.90
39099;DHT22;24844;52.380;7.018;2023-04-01T21:47:14;7.40;99.90
39099;DHT22;24844;52.380;7.018;2023-04-01T21:52:26;7.40;99.90
39099;DHT22;24844;52.380;7.018;2023-04-01T21:58:03;7.10;99.90
39099;DHT22;24844;52.380;7.018;2023-04-01T22:00:38;7.20;99.90
39099;DHT22;24844;52.380;7.018;2023-04-01T22:06:27;7.10;99.90
39099;DHT22;24844;52.380;7.018;2023-04-01T22:09:40;7.30;99.90
39099;DHT22;24844;52.380;7.018;2023-04-01T22:14:41;7.40;99.90
39099;DHT22;24844;52.380;7.018;2023-04-01T22:22:31;6.80;99.90
39099;DHT22;24844;52.380;7.018;2023-04-01T22:27:45;6.50;99.90
39099;DHT22;24844;52.380;7.018;2023-04-01T22:30:22;6.80;99.90
39099;DHT22;24844;52.380;7.018;2023-04-01T22:32:52;6.70;99.90
39099;DHT22;24844;52.380;7.018;2023-04-01T22:40:59;6.80;99.90
39099;DHT22;24844;52.380;7.018;2023-04-01T22:43:41;6.80;99.90
39099;DHT22;24844;52.380;7.018;2023-04-01T22:49:17;6.90;99.90
39099;DHT22;24844;52.380;7.018;2023-04-01T22:51:57;6.70;99.90
39099;DHT22;24844;52.380;7.018;2023-04-01T22:54:39;6.40;99.90
39099;DHT22;24844;52.380;7.018;2023-04-01T23:00:16;6.70;99.90
39099;DHT22;24844;52.380;7.018;2023-04-01T23:03:11;6.70;99.90
39099;DHT22;24844;52.380;7.018;2023-04-01T23:05:51;6.70;99.90
39099;DHT22;24844;52.380;7.018;2023-04-01T23:08:33;6.70;99.90
39099;DHT22;24844;52.380;7.018;2023-04-01T23:11:06;6.30;99.90
39099;DHT22;24844;52.380;7.018;2023-04-01T23:13:39;6.50;99.90
39099;DHT22;24844;52.380;7.018;2023-04-01T23:16:07;6.60;99.90
39099;DHT22;24844;52.380;7.018;2023-04-01T23:24:58;6.30;99.90
39099;DHT22;24844;52.380;7.018;2023-04-01T23:27:36;6.60;99.90
39099;DHT22;24844;52.380;7.018;2023-04-01T23:30:15;6.50;99.90
39099;DHT22;24844;52.380;7.018;2023-04-01T23:32:50;6.70;99.90
39099;DHT22;24844;52.380;7.018;2023-04-01T23:35:16;6.50;99.90
39099;DHT22;24844;52.380;7.018;2023-04-01T23:37:42;6.90;99.90
39099;DHT22;24844;52.380;7.018;2023-04-01T23:40:12;6.60;99.90
39099;DHT22;24844;52.380;7.018;2023-04-01T23:42:40;6.30;99.90
39099;DHT22;24844;52.380;7.018;2023-04-01T23:45:15;6.60;99.90
39099;DHT22;24844;52.380;7.018;2023-04-01T23:47:48;6.60;99.90
39099;DHT22;24844;52.380;7.018;2023-04-01T23:50:22;6.40;99.90
39099;DHT22;24844;52.380;7.018;2023-04-01T23:53:02;6.60;99.90
39099;DHT22;24844;52.380;7.018;2023-04-01T23:55:31;6.50;99.90
